Prompton, Pennsylvania
Current Conditions -  °F | °C
As of 2:12 PM on Thursday 23 Oct 2014 (Local Time) from KAVP Reporting Station
Light Rain Light Rain  
Wind Chill: 43°   Ceiling: 1400
Heat Index: 48°   Visibility: 4mi
Dew Point: 43°   Wind: 13mph
Humidity: 83%   Direction: 20°NNE
Pressure: 29.84"   Gusts: 17mph
Location:  41.58°N, 75.33°W
Report Text: KAVP 231812Z AUTO 02011G15KT 4SM -RA OVC014 09/06 A2984 RMK AO2 P0001 T00890061
Loading
Personal Weather Stations






























Interactive Weather Map
Tropical Storm Tracking
New forecast layout! Learn more

10-Day Weather Forecast

Advertisements
Track Severe Weather on mobile